Overview Statistics Trail Chart Weather Telemetry Raw packets
 

This is the latest recevied weather packets stored in our database for station/object IU3OVK-13. If no packets are shown the sender has not sent any weather packets the latest 10 day(s).

<< 31 32 33 34 35 36 37 >>
Time Temp. Humidity Pressure Rain* Wind** Luminosity Snow
1787995792 43.33° C 82% 996.4 hPa - - - -
1787995172 39.44° C 87% 1000.8 hPa - - - -
1787994552 38.33° C 92% 1008 hPa - - - -
1787993932 41.67° C 85% 996 hPa - - - -
1787993312 40.56° C 92% 1005.5 hPa - - - -
1787992691 42.22° C 94% 1001.9 hPa - - - -
1787992077 41.67° C 98% 1002.2 hPa - - - -
1787991451 38.33° C 99% 1005.6 hPa - - - -
1787990831 38.89° C 99% 1004.3 hPa - - - -
1787990211 38.89° C 99% 1004.3 hPa - - - -
1787989589 27.78° C 99% 1006.4 hPa - - - -
1787987728 24.44° C 99% 1006.3 hPa - - - -
1787987109 23.33° C 99% 1005.4 hPa - - - -
1787986488 22.22° C 99% 1004.9 hPa - - - -
1787985867 21.67° C 99% 1005.1 hPa - - - -
1787984627 21.67° C 99% 1004.9 hPa - - - -
1787984007 23.33° C 99% 1004.3 hPa - - - -
1787983421 20° C 99% 1005.9 hPa - - - -
1787983387 20° C 99% 1005.9 hPa - - - -
1787982766 19.44° C 99% 1006.1 hPa - - - -
1787982146 18.89° C 99% 1006.8 hPa - - - -
1787981526 18.89° C 99% 1006.7 hPa - - - -
1787954360 22.78° C 99% 1004.7 hPa - - - -
1787954329 22.78° C 99% 1004.7 hPa - - - -
1787953709 22.78° C 99% 1004.4 hPa - - - -

* Rain since midnight (hover to see other rain measurements)
** Current wind speed in m/s (hover to see current wind gust speed)